Nearby METAR Reports

 

KHAO - Hamilton, Ohio, USA
Distance from station: NW 8mi, 14km
Updated: 12/11/2018 5:53am
Mist, Partly cloudy
Mist, Partly cloudy
 Wind from calm
Wind: Calm
Temperature: 18°F , -8°C
Dew Point: 14°F , -10°C
Humidity: 86%
Barometer: 30.24 inHg , 1024 hPa
Summary: Mist
Clouds: Partly cloudy
Visibility: 4 miles , 6 km
Cloud details: Partly cloudy 400 ft
2018/12/11 10:53 KHAO 111053Z AUTO 00000KT 4SM BR SCT004 M08/M10 A3024 RMK AO2 SLP251 T10781100
KMWO - Middletown/Hook, Ohio, USA
Distance from station: N 17mi, 27km
Updated: 12/11/2018 5:55am
Mist, Mostly cloudy
Mist, Mostly cloudy
 Wind from SSW
Wind: SSW 5 mph , 7 km/h
Temperature: 18°F , -8°C
Wind Chill: 11°F , -12°C
Dew Point: 16°F , -9°C
Humidity: 93%
Barometer: 30.23 inHg , 1023.7 hPa
Summary: Mist
Clouds: Mostly cloudy
Visibility: 3 1/2 miles , 5.6 km
Cloud details: Mostly cloudy 300 ft
Mostly cloudy 7000 ft
2018/12/11 10:55 KMWO 111055Z AUTO 20004KT 3 1/2SM BR BKN003 BKN070 M08/M09 A3023 RMK AO2 T10771086
KCVG - Covington, Kentucky, USA
Distance from station: SW 22mi, 35km
Updated: 12/11/2018 5:52am
Mist, Clear
Mist, Clear
 Wind from SSW
Wind: SSW 5 mph , 7 km/h
Temperature: 18°F , -8°C
Wind Chill: 11°F , -12°C
Dew Point: 14°F , -10°C
Humidity: 86%
Barometer: 30.21 inHg , 1023 hPa
Summary: Mist
Clouds: Clear
Visibility: 4 miles , 6 km
2018/12/11 10:52 KCVG 111052Z 21004KT 4SM BR CLR M08/M10 A3021 RMK AO2 SLP240 T10781100
 
KILN - Wilmington, Ohio, USA
Distance from station: ENE 33mi, 54km
Updated: 12/11/2018 6:09am
Mist, Clear
Mist, Clear
 Wind from SW
Wind: SW 7 mph , 11 km/h
Temperature: 18°F , -8°C
Wind Chill: 9°F , -13°C
Dew Point: 16°F , -9°C
Humidity: 93%
Barometer: 30.19 inHg , 1022.4 hPa
Summary: Mist
Clouds: Clear
Visibility: 3 miles , 5 km
2018/12/11 11:09 KILN 111109Z AUTO 23006KT 3SM BR CLR M08/M09 A3019 RMK AO2 T10781089
KDAY - Dayton, Ohio, USA
Distance from station: NNE 43mi, 70km
Updated: 12/11/2018 5:56am
Mist, Few clouds
Mist, Few clouds
 Wind from SSW
Wind: SSW 9 mph , 15 km/h
Temperature: 19°F , -7°C
Wind Chill: 8°F , -13°C
Dew Point: 16°F , -9°C
Humidity: 86%
Barometer: 30.18 inHg , 1022 hPa
Summary: Mist
Clouds: Few Clouds
Visibility: 2 miles , 3 km
Cloud details: Few Clouds 500 ft
2018/12/11 10:56 KDAY 111056Z 20008KT 2SM BR FEW005 M07/M09 A3018 RMK AO2 SFC VIS 4 SLP233 I1000 T10721089 $
KTZR - Columbus/Bolton, Ohio, USA
Distance from station: ENE 80mi, 128km
Updated: 12/11/2018 5:55am
Mist, Overcast
Mist, Overcast
 Wind from SW
Wind: SW 6 mph , 9 km/h
Temperature: 19°F , -7°C
Wind Chill: 11°F , -12°C
Dew Point: 18°F , -8°C
Humidity: 93%
Barometer: 30.20 inHg , 1022.7 hPa
Summary: Mist
Clouds: Overcast
Visibility: 2 1/2 miles , 4 km
Cloud details: Overcast 600 ft
2018/12/11 10:55 KTZR 111055Z AUTO 22005KT 2 1/2SM BR OVC006 M07/M08 A3020 RMK AO2 T10681076
 
KMGN - Harbor Springs, Michigan, USA
Distance from station: N 417mi, 672km
Updated: 12/11/2018 5:55am
Overcast
Overcast
 Wind from W
Wind: W 8 mph , 13 km/h
Temperature: 30°F , -1°C
Wind Chill: 22°F , -6°C
Dew Point: 25°F , -4°C
Humidity: 80%
Barometer: 29.90 inHg , 1012.5 hPa
Clouds: Overcast
Visibility: 10 miles , 16 km
Cloud details: Overcast 1600 ft
2018/12/11 10:55 KMGN 111055Z AUTO 26007KT 230V290 10SM OVC016 M01/M04 A2990 RMK AO2 T10101043
KIND - Indianapolis, Indiana, USA
Distance from station: WNW 99mi, 160km
Updated: 12/11/2018 5:54am
Mist, Clear
Mist, Clear
 Wind from SW
Wind: SW 10 mph , 17 km/h
Temperature: 19°F , -7°C
Wind Chill: 8°F , -13°C
Dew Point: 18°F , -8°C
Humidity: 93%
Barometer: 30.18 inHg , 1022 hPa
Summary: Mist
Clouds: Clear
Visibility: 5 miles , 8 km
2018/12/11 10:54 KIND 111054Z 23009KT 5SM BR CLR M07/M08 A3018 RMK AO2 SLP234 T10671083
KLEX - Lexington, Kentucky, USA
Distance from station: S 87mi, 141km
Updated: 12/11/2018 5:54am
Clear
Clear
 Wind from S
Wind: S 6 mph , 9 km/h
Temperature: 19°F , -7°C
Wind Chill: 11°F , -12°C
Dew Point: 14°F , -10°C
Humidity: 79%
Barometer: 30.24 inHg , 1024 hPa
Clouds: Clear
Visibility: 9 miles , 14 km
2018/12/11 10:54 KLEX 111054Z AUTO 18005KT 9SM CLR M07/M10 A3024 RMK AO2 SLP251 T10721100
 
KSDF - Louisville, Kentucky, USA
Distance from station: SW 104mi, 167km
Updated: 12/11/2018 5:56am
Haze, Clear
Haze, Clear
 Wind from SSE
Wind: SSE 5 mph , 7 km/h
Temperature: 21°F , -6°C
Wind Chill: 14°F , -10°C
Dew Point: 18°F , -8°C
Humidity: 86%
Barometer: 30.27 inHg , 1025.1 hPa
Summary: Haze
Clouds: Clear
Visibility: 6 miles , 10 km
2018/12/11 10:56 KSDF 111056Z 15004KT 6SM HZ CLR M06/M08 A3027 RMK AO2 SLP254 T10561083